Date,TemperatureHighF,TemperatureAvgF,TemperatureLowF,DewpointHighF,DewpointAvgF,DewpointLowF,HumidityHigh,HumidityAvg,HumidityLow,PressureMaxIn,PressureMinIn,WindSpeedMaxMPH,WindSpeedAvgMPH,GustSpeedMaxMPH,PrecipitationSumIn
2013-1-1,35.7,27.3,9.5,28.8,18.8,5.3,86,70,62,30.00,29.77,24,8,30,0.00
2013-1-2,27.7,16.6,4.5,18.6,10.1,-2.5,89,76,64,30.25,29.97,9,4,30,0.00
2013-1-3,19.4,7.9,-4.3,10.9,0.5,-8.2,84,72,61,30.28,30.00,10,2,14,0.00
2013-1-4,40.3,30.6,19.4,25.6,21.3,11.2,84,69,53,30.00,29.86,13,3,25,0.00
2013-1-5,39.1,32.6,22.8,27.5,23.0,17.9,84,68,49,30.26,29.92,25,9,36,0.00
2013-1-6,41.5,34.4,23.7,30.0,27.8,19.3,88,77,62,30.19,29.91,10,3,14,0.01
2013-1-7,37.1,28.1,15.6,32.4,22.6,13.0,90,80,63,30.40,29.99,17,4,23,0.00
2013-1-8,42.5,26.4,12.2,29.7,21.2,9.3,93,81,60,30.39,30.29,14,2,17,0.00
2013-1-9,44.5,32.0,17.9,33.2,25.7,15.5,92,79,52,30.38,30.00,33,5,59,0.00
2013-1-10,44.1,37.1,26.3,31.9,26.9,22.4,86,67,53,30.57,30.14,35,11,59,0.00
2013-1-11,39.2,31.6,24.2,37.1,28.1,21.4,94,87,65,30.55,30.10,14,3,18,0.15
2013-1-12,45.0,40.8,36.2,42.6,39.2,34.9,96,94,91,30.16,30.08,12,3,15,0.00
2013-1-13,48.6,44.2,39.6,46.1,42.7,38.6,97,94,90,30.14,29.94,18,7,25,0.00
2013-1-14,47.8,42.7,34.7,45.8,35.8,25.6,94,77,58,30.33,29.85,25,11,41,0.01
2013-1-15,38.2,33.3,30.2,27.4,24.8,22.7,79,71,57,30.37,30.24,14,4,18,0.00
2013-1-16,32.9,31.1,29.1,30.6,28.3,24.2,95,89,77,30.24,29.83,6,1,8,0.24
2013-1-17,38.1,30.9,23.3,31.5,23.6,11.1,95,75,55,30.18,29.85,16,6,32,0.00
2013-1-18,24.9,19.2,11.1,11.7,7.1,-0.4,78,60,42,30.42,30.11,20,6,29,0.00
2013-1-19,42.9,34.9,25.0,28.6,21.7,11.9,65,58,51,30.26,29.78,20,12,29,0.00
2013-1-20,45.0,36.2,22.4,34.2,23.7,12.3,82,61,42,30.03,29.54,31,14,45,0.00
2013-1-21,26.9,22.8,17.4,20.3,14.2,10.9,84,70,53,30.08,29.81,9,3,18,0.00
2013-1-22,21.0,16.4,9.3,16.3,5.2,-1.9,85,63,40,30.14,29.80,25,8,36,0.00
2013-1-23,12.5,6.9,0.9,2.4,-2.9,-5.4,80,64,48,30.23,30.13,23,6,32,0.00
2013-1-24,16.9,7.3,-2.3,2.9,-2.0,-6.5,82,66,43,30.41,30.18,30,8,38,0.00
2013-1-25,18.8,12.3,5.1,11.4,2.5,-3.5,86,65,47,30.44,30.10,22,6,33,0.00
2013-1-26,22.8,14.1,5.7,8.8,6.3,2.4,87,72,50,30.36,30.09,17,6,30,0.00
2013-1-27,29.4,16.5,3.8,8.7,4.6,0.3,87,62,33,30.54,30.35,16,4,20,0.00
2013-1-28,30.1,23.6,15.1,28.6,18.5,7.8,94,81,59,30.50,29.97,7,1,9,0.00
2013-1-29,40.0,32.0,26.4,37.6,29.8,24.7,95,91,87,30.16,29.99,17,3,21,0.33
2013-1-30,57.2,50.5,40.0,55.2,48.4,37.5,95,92,89,30.02,29.30,25,14,33,0.16
2013-1-31,54.4,39.6,24.7,53.1,32.6,19.4,96,77,52,29.65,28.89,30,12,56,0.56
2013-2-1,28.6,23.9,18.5,19.8,13.1,8.5,84,64,51,30.17,29.65,28,10,45,0.00
2013-2-2,28.5,20.7,10.3,16.4,11.3,6.1,86,67,50,30.23,30.02,22,5,30,0.00
2013-2-3,30.4,22.8,15.2,18.4,15.6,12.7,90,74,53,30.06,29.78,10,1,11,0.00
2013-2-4,26.8,21.6,13.7,18.5,13.6,9.9,86,72,52,29.97,29.78,20,6,36,0.00
2013-2-5,29.6,23.4,16.8,22.5,14.1,9.2,84,68,50,30.03,29.90,8,2,12,0.00
2013-2-6,35.3,27.7,18.4,26.0,17.7,5.3,90,68,38,30.39,29.90,30,7,36,0.00
2013-2-7,27.2,19.9,13.6,10.0,7.8,5.5,78,60,44,30.56,30.38,12,4,15,0.00
2013-2-8,32.4,24.3,19.5,25.3,18.6,8.9,91,79,63,30.39,29.83,20,6,27,0.28
2013-2-9,27.1,19.3,6.3,22.2,10.7,-0.5,92,70,46,30.38,29.86,23,9,30,0.35
2013-2-10,30.2,12.8,-1.8,10.8,3.8,-5.7,85,69,35,30.54,30.29,8,1,9,0.00
2013-2-11,41.1,34.4,16.9,37.5,29.5,10.9,93,82,59,30.28,29.65,21,9,30,0.02
2013-2-12,38.7,36.5,33.9,32.4,28.8,25.5,90,73,66,29.94,29.69,26,8,43,0.00
2013-2-13,40.8,34.3,31.2,27.9,24.9,22.5,84,69,50,29.91,29.73,10,2,17,0.00
2013-2-14,41.4,32.5,22.9,27.4,23.8,19.1,87,71,55,29.95,29.73,16,3,25,0.00
2013-2-15,49.8,40.0,31.9,32.1,28.0,24.5,90,63,45,30.02,29.88,20,7,25,0.00
2013-2-16,34.3,29.8,24.2,29.2,19.3,10.9,93,66,51,30.02,29.86,22,8,29,0.02
2013-2-17,25.7,20.1,13.6,12.1,6.5,1.2,68,56,39,29.96,29.67,35,14,59,0.00
2013-2-18,28.8,18.6,9.0,11.6,3.7,-1.0,70,53,34,30.23,29.97,29,13,44,0.00
2013-2-19,43.6,31.3,17.5,34.8,23.3,10.5,93,73,50,30.17,29.63,28,6,41,0.11
2013-2-20,33.3,28.6,25.3,26.5,16.9,11.1,79,62,44,29.90,29.66,31,14,48,0.00
2013-2-21,25.9,21.8,19.0,17.0,12.5,8.9,80,67,58,30.40,29.89,32,15,43,0.00
2013-2-22,37.1,29.2,19.6,26.1,20.7,15.0,84,71,60,30.45,30.24,17,3,18,0.00
2013-2-23,37.4,35.5,33.3,34.8,30.9,25.9,93,83,70,30.24,29.88,10,4,17,0.00
2013-2-24,39.3,34.5,32.4,35.2,30.8,26.8,95,87,70,29.98,29.78,18,6,30,0.02
2013-2-25,41.6,34.4,23.5,30.8,27.8,21.5,93,77,59,30.25,29.98,13,2,18,0.00
2013-2-26,45.7,36.4,25.6,32.7,28.2,23.6,92,73,53,30.31,30.04,18,3,21,0.00
2013-2-27,44.1,38.0,32.8,38.4,34.3,28.6,95,87,73,30.04,29.55,15,4,24,0.47
2013-2-28,43.8,38.1,34.5,38.6,35.1,32.9,96,89,76,29.61,29.56,12,2,18,0.05
2013-3-1,40.6,35.4,32.3,34.0,31.7,27.4,94,86,74,29.78,29.61,15,6,25,0.04
2013-3-2,36.5,31.0,25.8,27.4,24.8,21.3,87,78,66,29.78,29.72,20,11,27,0.08
2013-3-3,32.2,26.7,22.9,25.7,20.5,16.8,85,77,69,29.78,29.70,21,11,38,0.04
2013-3-4,32.6,28.9,26.0,24.2,22.0,20.0,82,75,67,29.92,29.76,31,15,50,0.00
2013-3-5,41.9,33.5,29.0,29.0,25.4,21.8,85,72,59,30.09,29.92,17,8,24,0.00
2013-3-6,42.7,35.8,29.4,33.8,28.1,25.1,87,74,61,30.13,30.04,21,8,32,0.00
2013-3-7,38.6,34.5,30.5,31.1,27.3,24.0,93,76,58,30.17,30.10,22,8,25,0.18
2013-3-8,40.9,33.2,29.6,31.4,28.3,24.7,93,83,64,30.30,30.11,23,10,25,0.74
2013-3-9,52.1,35.1,20.8,29.7,25.0,17.8,90,69,39,30.36,30.28,13,5,23,0.00
2013-3-10,54.3,40.7,21.6,33.1,26.7,19.4,92,61,36,30.36,30.19,17,7,24,0.00
2013-3-11,50.5,44.2,36.8,42.0,35.8,31.0,82,72,60,30.24,29.99,23,12,35,0.00
2013-3-12,53.2,48.8,38.9,51.1,44.9,33.9,95,87,79,30.00,29.67,24,12,29,0.81
2013-3-13,47.9,38.7,32.8,33.3,28.2,23.0,86,68,41,29.88,29.78,28,8,35,0.00
2013-3-14,33.2,27.9,25.1,24.6,15.7,9.8,74,60,49,29.92,29.83,31,15,45,0.00
2013-3-15,38.2,30.0,18.5,30.6,20.2,10.9,87,67,52,29.95,29.66,20,6,30,0.00
2013-3-16,34.9,28.9,22.5,26.6,18.1,15.4,86,64,45,29.92,29.76,18,6,24,0.00
2013-3-17,36.9,28.1,18.6,17.6,12.2,8.5,76,53,32,30.34,29.92,28,7,32,0.00
2013-3-18,38.8,27.5,14.6,26.4,13.0,7.3,91,58,29,30.46,30.11,13,3,15,0.15
2013-3-19,35.7,31.5,27.5,32.7,29.0,24.3,94,90,87,30.08,29.71,10,3,18,0.54
2013-3-20,37.8,28.4,16.5,25.1,20.9,14.1,92,75,52,29.83,29.77,21,4,32,0.01
2013-3-21,38.0,26.7,13.5,19.6,15.3,10.9,90,65,41,29.82,29.66,22,5,23,0.00
2013-3-22,37.0,28.8,17.9,25.7,20.7,11.9,84,72,59,29.83,29.70,21,6,35,0.00
2013-3-23,41.4,35.1,31.0,26.4,24.0,21.9,81,65,48,29.89,29.78,28,14,38,0.00
2013-3-24,45.0,36.7,32.0,26.5,24.4,23.2,73,62,46,29.91,29.76,15,7,20,0.00
2013-3-25,44.2,37.0,29.7,30.0,27.2,23.7,79,68,54,29.78,29.52,17,7,24,0.00
2013-3-26,48.3,38.6,29.8,30.7,26.8,21.8,85,64,36,29.85,29.61,16,4,24,0.00
2013-3-27,51.5,39.5,27.5,34.8,28.4,21.2,83,65,46,29.94,29.84,28,7,35,0.00
2013-3-28,49.0,42.1,36.8,36.9,33.6,30.8,86,72,58,30.10,29.94,18,9,23,0.00
2013-3-29,51.7,43.1,31.8,35.3,31.9,27.2,86,65,46,30.13,30.05,20,9,29,0.00
2013-3-30,56.3,43.1,28.1,33.1,27.3,23.1,91,58,30,30.14,30.05,23,5,24,0.00
2013-3-31,56.4,42.9,27.3,40.1,29.5,22.6,91,62,35,30.12,29.71,25,7,32,0.11
2013-4-1,52.8,40.8,31.5,45.4,32.9,16.7,95,76,42,29.88,29.56,33,10,46,0.08
2013-4-2,37.5,31.8,26.3,25.1,20.2,14.8,88,64,39,30.03,29.87,32,11,44,0.02
2013-4-3,41.3,33.5,26.1,22.5,18.5,14.9,77,55,35,30.29,30.01,30,13,46,0.00
2013-4-4,54.7,41.1,25.2,25.5,22.7,18.7,82,51,29,30.36,29.97,16,7,25,0.00
2013-4-5,54.3,44.6,36.4,31.5,26.2,20.8,78,50,31,29.99,29.77,26,11,43,0.00
2013-4-6,48.4,37.0,28.8,29.6,13.9,8.7,77,41,22,30.29,29.99,21,8,27,0.00
2013-4-7,60.3,45.4,30.8,35.7,24.8,14.7,66,46,28,30.25,29.85,26,12,35,0.00
2013-4-8,62.2,51.3,40.6,41.3,37.2,34.3,83,60,38,30.13,29.92,17,4,23,0.00
2013-4-9,60.3,56.2,52.1,49.0,44.8,38.6,76,66,52,30.04,29.82,29,10,38,0.02
2013-4-10,59.4,50.8,45.3,51.4,47.2,43.4,95,88,72,29.99,29.83,20,5,23,0.70
2013-4-11,45.1,39.8,33.4,43.2,31.5,24.7,93,73,51,30.14,29.88,23,11,27,0.02
2013-4-12,41.0,36.3,32.6,37.4,33.6,26.5,93,90,73,30.13,29.78,10,3,18,0.53
2013-4-13,51.6,43.6,37.5,41.9,38.3,35.9,95,82,65,29.94,29.81,15,2,25,0.01
2013-4-14,47.7,42.1,32.0,38.1,32.3,26.2,89,70,47,30.25,29.93,29,7,32,0.02
2013-4-15,61.2,46.0,28.3,37.4,31.7,25.4,92,61,39,30.37,30.23,20,5,23,0.00
2013-4-16,60.0,54.3,47.6,54.2,44.2,31.6,90,69,51,30.30,30.01,23,13,35,0.22
2013-4-17,65.2,52.5,42.7,42.9,37.4,32.0,78,59,32,30.31,30.13,17,8,27,0.00
2013-4-18,65.9,51.9,35.3,47.0,37.2,31.2,86,60,36,30.34,30.01,25,10,35,0.00
2013-4-19,72.0,62.5,45.2,61.8,56.0,41.9,89,80,68,30.01,29.51,30,14,49,0.73
2013-4-20,53.5,45.5,35.7,41.7,34.2,22.9,92,67,40,30.33,29.73,25,9,35,0.21
2013-4-21,52.4,40.3,30.6,26.9,22.6,19.4,67,51,31,30.65,30.33,18,7,27,0.00
2013-4-22,60.4,46.3,30.6,30.4,25.7,20.3,79,47,24,30.71,30.49,15,5,21,0.00
2013-4-23,55.9,44.0,30.0,40.7,33.6,25.8,86,67,54,30.52,30.14,8,2,12,0.00
2013-4-24,72.8,55.1,33.9,51.3,43.0,31.3,93,67,43,30.14,29.68,21,6,33,0.00
2013-4-25,61.7,48.3,39.3,51.7,33.9,28.6,82,59,35,30.26,29.72,22,10,39,0.08
2013-4-26,59.2,46.6,33.9,39.0,32.9,29.5,89,62,34,30.44,30.26,24,5,27,0.00
2013-4-27,65.9,49.6,32.7,38.2,32.9,26.9,89,57,24,30.45,30.27,13,3,15,0.00
2013-4-28,74.4,57.5,36.6,43.9,37.6,33.2,90,52,26,30.31,30.09,17,4,20,0.00
2013-4-29,60.4,56.5,51.7,48.9,42.6,32.1,89,61,39,30.22,30.16,14,6,18,0.02
2013-4-30,74.5,60.2,48.1,48.8,42.9,31.9,89,57,30,30.30,30.21,13,3,18,0.01
2013-5-1,77.1,62.5,42.9,41.8,34.8,29.7,69,38,22,30.43,30.29,10,2,16,0.00
2013-5-2,82.1,66.1,46.0,48.1,43.1,38.0,83,47,24,30.45,30.24,17,4,24,0.00
2013-5-3,73.4,62.1,51.2,43.6,37.2,28.9,58,41,24,30.47,30.29,12,4,18,0.00
2013-5-4,77.6,63.0,44.6,48.8,42.6,30.5,88,51,27,30.35,30.14,13,3,16,0.00
2013-5-5,75.8,61.0,44.2,43.8,39.4,32.6,85,49,24,30.29,30.12,12,3,15,0.00
2013-5-6,75.9,60.8,43.3,50.8,41.4,22.7,88,54,14,30.25,30.06,10,4,15,0.00
2013-5-7,80.2,66.8,49.9,55.5,51.7,47.4,92,62,35,30.15,30.01,8,2,15,0.00
2013-5-8,73.1,64.1,54.7,61.6,57.1,52.4,93,79,57,30.13,29.97,13,2,20,0.09
2013-5-9,71.9,61.6,50.9,57.5,54.5,49.5,96,79,51,29.99,29.85,7,2,16,0.00
2013-5-10,76.2,65.7,51.3,58.6,54.6,49.8,95,70,47,29.97,29.81,10,2,15,0.00
2013-5-11,68.9,62.8,55.7,64.4,58.5,51.1,93,86,64,29.82,29.64,17,4,20,0.59
2013-5-12,60.5,53.4,43.7,51.0,41.3,28.8,87,66,33,29.87,29.66,26,6,35,0.01
2013-5-13,51.1,44.9,38.3,35.7,31.2,27.9,82,59,45,30.09,29.86,17,5,27,0.00
2013-5-14,59.5,47.1,37.3,36.6,33.1,28.5,87,61,33,30.12,30.01,15,3,23,0.00
2013-5-15,65.3,49.6,33.4,53.2,41.4,31.1,93,75,48,30.05,29.59,17,4,21,0.06
2013-5-16,80.6,64.9,44.8,49.7,42.3,36.4,89,49,23,29.85,29.67,22,6,39,0.00
2013-5-17,69.8,58.2,47.4,46.3,42.4,39.2,77,58,35,30.21,29.86,15,4,21,0.00
2013-5-18,72.5,59.6,42.7,50.0,45.4,40.6,93,63,33,30.30,30.19,14,3,16,0.00
2013-5-19,60.2,56.4,48.1,56.0,52.9,46.0,94,88,77,30.29,30.14,9,2,14,0.06
2013-5-20,81.2,66.8,57.3,66.5,60.2,54.4,92,80,58,30.15,29.91,9,2,14,0.00
2013-5-21,88.6,71.8,60.5,70.4,64.5,58.7,96,80,50,29.94,29.76,26,3,35,0.60
2013-5-22,76.5,69.0,62.1,71.0,66.0,60.9,96,90,79,29.87,29.76,17,3,29,1.51
2013-5-23,74.3,69.8,66.3,68.7,65.4,62.0,94,86,78,29.81,29.70,10,4,20,0.25
2013-5-24,66.3,52.3,44.1,64.7,50.4,42.5,96,93,88,30.01,29.64,15,5,31,0.75
2013-5-25,46.1,44.8,43.7,44.3,42.7,41.3,94,93,89,29.99,29.92,20,10,31,0.89
2013-5-26,57.2,49.2,41.5,46.7,42.6,39.6,93,79,58,30.13,29.88,22,8,30,0.12
2013-5-27,72.2,56.5,39.0,45.1,40.1,36.8,95,59,33,30.20,30.10,16,4,26,0.00
2013-5-28,70.5,57.3,41.3,55.3,46.4,39.1,93,69,40,30.22,30.11,12,2,18,0.00
2013-5-29,78.2,64.9,57.8,70.1,61.5,55.4,96,89,75,30.11,29.89,23,3,62,1.60
2013-5-30,88.2,74.0,60.7,71.1,65.9,59.6,97,78,51,30.10,30.02,14,3,20,0.00
2013-5-31,90.7,78.1,63.4,72.6,66.6,61.3,95,70,45,30.09,29.90,7,1,9,0.00
2013-6-1,89.2,79.4,66.4,72.7,67.4,61.8,85,67,54,29.95,29.80,12,2,18,0.00
2013-6-2,86.5,76.3,68.3,72.9,68.8,65.0,91,78,62,29.82,29.66,13,4,21,0.05
2013-6-3,70.3,64.6,55.2,65.6,54.3,38.7,93,71,45,29.93,29.78,16,6,26,0.01
2013-6-4,72.7,60.7,49.5,49.9,44.5,41.1,75,57,39,30.12,29.93,17,7,31,0.00
2013-6-5,74.7,62.4,48.5,51.4,47.0,41.8,88,59,39,30.21,30.08,8,2,14,0.00
2013-6-6,72.3,62.1,52.2,57.0,52.4,47.6,94,72,47,30.13,30.02,12,2,23,0.51
2013-6-7,58.5,56.7,55.4,57.1,55.0,53.5,95,94,92,30.03,29.79,8,1,15,0.54
2013-6-8,71.6,61.6,54.0,61.7,56.6,52.6,95,84,69,30.04,29.72,15,5,29,0.20
2013-6-9,77.4,65.8,53.1,59.7,56.3,51.4,95,74,49,30.17,30.04,17,2,20,0.00
2013-6-10,65.5,60.9,53.8,62.8,58.5,52.1,95,92,84,30.17,29.87,5,0,8,0.55
2013-6-11,69.1,63.0,58.9,67.1,60.5,55.8,96,92,82,29.87,29.55,13,3,27,1.25
2013-6-12,73.9,64.0,57.0,57.5,54.8,52.9,90,73,50,29.84,29.64,16,7,30,0.00
2013-6-13,58.1,56.2,52.6,56.9,54.6,50.9,96,94,90,29.82,29.66,8,1,12,1.30
2013-6-14,76.0,63.4,54.1,62.8,57.1,52.7,96,81,53,29.86,29.69,12,3,20,0.02
2013-6-15,77.5,65.9,52.6,57.0,50.3,44.9,95,62,34,29.98,29.86,20,4,26,0.00
2013-6-16,70.4,63.2,51.3,63.4,55.8,46.2,89,77,65,29.96,29.69,9,2,21,0.00
2013-6-17,82.4,67.5,57.9,70.3,61.9,56.5,96,84,51,29.89,29.77,13,1,31,0.22
2013-6-18,65.8,60.3,53.3,59.0,55.7,51.5,96,85,70,29.96,29.88,17,4,21,0.02
2013-6-19,72.7,60.9,49.2,52.4,48.8,45.2,95,68,41,30.17,29.95,10,3,16,0.00
2013-6-20,78.4,64.1,46.9,58.6,52.3,45.3,95,69,42,30.27,30.16,9,1,12,0.00
2013-6-21,84.5,70.6,56.9,61.3,56.1,48.8,92,64,33,30.25,30.18,10,1,15,0.00
2013-6-22,82.9,73.4,64.0,67.1,63.1,59.2,89,71,54,30.20,30.05,8,3,14,0.00
2013-6-23,89.9,78.7,70.2,73.5,67.5,62.3,79,69,54,30.10,29.94,13,4,20,0.00
2013-6-24,90.6,76.3,66.9,73.5,69.5,65.3,95,81,54,30.01,29.90,10,2,23,0.38
2013-6-25,88.1,73.4,63.3,74.5,68.8,62.1,96,86,59,29.97,29.73,13,1,30,0.36
2013-6-26,81.6,73.8,69.8,72.6,69.4,67.4,96,87,68,29.80,29.74,8,1,12,0.03
2013-6-27,96.7,75.6,65.3,71.4,68.7,64.1,96,81,44,29.80,29.59,7,1,10,0.03
2013-6-28,79.3,72.6,68.3,71.2,68.0,64.8,96,86,65,29.59,29.35,15,4,27,1.51
2013-6-29,81.2,72.6,67.1,70.9,67.3,65.4,97,84,64,29.67,29.46,10,1,16,0.11
2013-6-30,83.8,71.9,64.0,72.3,67.5,62.5,96,87,65,29.90,29.67,7,1,16,0.28
2013-7-1,76.4,71.0,66.5,72.4,68.7,65.0,96,93,86,30.01,29.89,9,2,12,0.10
2013-7-2,84.5,74.5,65.6,75.1,70.3,64.4,96,87,72,30.10,30.00,12,2,20,0.00
2013-7-3,85.4,78.8,73.4,74.6,72.5,70.5,91,82,68,30.17,30.09,7,3,14,0.00
2013-7-4,89.4,80.5,71.8,76.1,73.3,70.0,95,80,63,30.19,30.05,12,2,18,0.00
2013-7-5,89.9,80.6,72.9,79.6,73.6,70.7,94,80,64,30.14,30.00,9,2,15,0.06
2013-7-6,87.1,78.3,70.6,73.1,70.4,67.9,95,78,54,30.09,30.00,13,3,20,0.00
2013-7-7,88.8,76.1,69.2,76.3,71.4,66.8,95,86,65,30.04,29.89,18,1,18,0.58
2013-7-8,85.0,76.4,71.0,71.7,70.2,68.6,96,82,59,30.02,29.92,12,2,16,0.15
2013-7-9,84.8,76.3,68.7,73.3,70.4,67.5,97,83,63,30.06,29.95,6,1,10,0.24
2013-7-10,83.8,76.5,72.4,75.5,72.4,69.3,94,87,75,29.97,29.75,10,2,21,0.93
2013-7-11,82.6,75.4,68.9,73.7,66.2,60.8,95,75,51,29.97,29.74,15,4,23,0.00
2013-7-12,83.1,73.0,65.5,67.0,63.5,59.4,89,73,58,30.16,29.96,15,5,20,0.00
2013-7-13,79.0,72.8,66.3,72.3,66.9,62.4,92,82,72,30.27,30.16,5,1,9,0.00
2013-7-14,89.2,78.6,68.7,74.5,71.5,67.2,96,80,58,30.31,30.19,8,1,12,0.00
2013-7-15,90.9,81.2,71.9,72.9,70.8,66.7,94,72,53,30.23,30.11,13,3,20,0.00
2013-7-16,91.5,80.1,67.6,73.0,69.7,65.0,92,72,51,30.21,30.12,9,2,14,0.00
2013-7-17,94.0,82.0,70.6,75.6,71.7,69.0,96,73,46,30.20,30.00,8,1,14,0.00
2013-7-18,93.4,84.0,74.9,76.5,73.3,70.6,91,72,49,30.03,29.91,13,3,24,0.00
2013-7-19,95.6,87.6,75.4,77.6,72.6,65.8,88,63,47,29.92,29.69,18,4,33,0.00
2013-7-20,86.0,77.4,69.3,72.1,66.8,61.6,85,71,57,29.83,29.68,18,3,33,0.00
2013-7-21,84.1,72.9,61.9,67.1,63.2,59.3,92,73,50,29.97,29.83,10,2,16,0.00
2013-7-22,86.1,73.7,63.0,70.5,64.1,56.2,95,73,54,30.00,29.80,10,2,20,0.35
2013-7-23,82.4,73.6,69.5,72.1,69.8,67.0,97,88,67,29.81,29.54,10,2,15,1.30
2013-7-24,75.5,70.2,61.4,69.6,60.5,51.1,96,73,54,30.01,29.59,20,6,27,0.00
2013-7-25,73.0,63.1,52.1,58.0,53.1,49.2,90,71,55,30.11,30.01,12,4,18,0.00
2013-7-26,78.4,67.0,59.8,62.2,57.7,53.7,91,73,53,30.08,29.98,12,4,18,0.00
2013-7-27,81.3,70.0,56.2,66.5,61.1,54.8,96,75,50,30.04,29.92,7,1,15,0.00
2013-7-28,72.8,69.7,66.4,68.7,65.3,61.9,94,86,78,29.97,29.91,7,1,10,0.12
2013-7-29,80.5,71.2,63.0,66.3,61.8,56.5,95,74,49,30.10,29.93,14,2,20,0.00
2013-7-30,78.8,67.6,55.8,61.7,57.8,54.1,95,73,49,30.16,30.06,12,3,21,0.00
2013-7-31,79.8,68.4,55.9,62.8,58.9,54.2,94,74,51,30.16,30.00,5,1,12,0.00
2013-8-1,75.4,67.5,61.8,67.6,62.9,59.1,92,85,74,30.01,29.82,12,3,20,0.05
2013-8-2,81.7,71.2,60.7,65.2,61.2,58.2,96,73,47,29.86,29.79,13,3,16,0.00
2013-8-3,80.6,70.4,61.8,62.5,57.7,50.6,91,67,40,29.87,29.79,16,5,31,0.00
2013-8-4,77.0,66.1,55.9,60.7,56.0,53.0,91,71,46,29.96,29.82,17,5,33,0.00
2013-8-5,76.7,65.0,53.4,56.0,51.2,45.9,90,64,36,30.05,29.95,15,5,26,0.00
2013-8-6,79.2,65.7,50.3,58.4,53.5,48.6,95,68,41,30.12,30.04,8,1,12,0.00
2013-8-7,75.8,70.6,63.6,64.5,61.8,58.0,85,74,65,30.12,30.01,13,4,18,0.00
2013-8-8,83.9,75.7,69.9,72.2,68.9,64.6,89,80,66,30.01,29.93,9,4,16,0.00
2013-8-9,76.8,73.9,71.5,73.7,71.0,67.1,95,91,83,29.94,29.76,9,2,18,0.61
2013-8-10,77.3,70.0,58.1,66.7,56.9,46.3,95,66,39,30.05,29.84,21,6,30,0.00
2013-8-11,78.4,64.1,51.4,59.2,55.0,49.6,95,74,49,30.11,30.00,13,2,15,0.00
2013-8-12,80.1,69.0,56.0,63.5,59.4,54.3,94,73,48,30.03,29.89,8,1,14,0.00
2013-8-13,76.0,68.2,62.7,68.5,64.0,57.8,95,87,76,29.89,29.65,8,1,20,1.22
2013-8-14,69.6,61.7,53.2,57.8,54.3,51.2,94,78,62,30.00,29.76,18,5,31,0.00
2013-8-15,73.9,62.4,50.5,57.1,53.3,48.8,95,74,48,30.12,30.00,14,2,20,0.00
2013-8-16,77.8,64.4,52.7,60.1,55.7,51.0,95,76,46,30.19,30.12,12,2,20,0.00
2013-8-17,80.3,65.8,52.9,62.3,57.6,51.5,96,77,44,30.29,30.19,8,1,10,0.00
2013-8-18,73.6,65.4,57.8,65.0,60.7,56.4,96,86,70,30.27,30.09,3,0,6,0.00
2013-8-19,80.5,68.7,60.7,65.2,61.5,57.5,96,80,48,30.09,29.98,8,1,16,0.00
2013-8-20,83.6,70.0,56.7,67.0,61.3,55.3,96,76,46,30.11,30.02,21,2,23,0.00
2013-8-21,86.5,72.4,59.5,68.4,64.0,58.1,96,77,47,30.17,30.01,10,1,16,0.00
2013-8-22,86.6,74.5,64.2,72.0,67.0,62.4,95,79,52,30.03,29.81,10,2,26,0.29
2013-8-23,77.2,69.0,60.5,67.3,58.9,51.4,95,72,41,30.16,29.88,14,4,20,0.00
2013-8-24,78.4,62.8,50.8,56.6,52.8,48.0,95,73,37,30.33,30.16,8,2,15,0.00
2013-8-25,80.3,66.1,50.4,62.4,56.8,48.9,95,74,49,30.39,30.15,6,1,10,0.00
2013-8-26,77.1,69.1,64.2,68.9,64.1,58.7,96,84,73,30.16,29.88,10,2,15,0.18
2013-8-27,82.2,72.2,67.5,70.9,68.2,66.0,96,88,67,29.91,29.84,9,2,12,0.09
2013-8-28,87.0,73.4,63.4,72.2,67.4,62.2,97,83,55,29.91,29.80,8,1,9,0.00
2013-8-29,80.6,71.7,62.5,68.4,65.6,61.1,96,82,63,30.03,29.91,6,0,8,0.00
2013-8-30,84.1,74.1,66.1,71.4,67.2,63.1,92,80,62,29.99,29.79,7,1,10,0.00
2013-8-31,80.7,73.1,69.0,74.5,70.4,67.7,96,91,80,29.80,29.73,8,1,16,0.37
2013-9-1,83.9,74.4,69.0,73.4,70.3,67.8,97,88,70,29.85,29.78,6,1,8,0.06
2013-9-2,80.6,73.4,66.5,73.5,70.0,64.8,96,89,76,29.79,29.64,15,1,18,0.35
2013-9-3,75.6,67.2,60.7,65.7,61.5,56.7,97,83,54,29.86,29.72,12,2,20,0.00
2013-9-4,79.1,67.5,58.2,60.4,57.8,55.2,95,73,44,29.95,29.86,13,3,23,0.00
2013-9-5,70.2,63.3,52.1,60.2,51.5,42.3,90,67,37,30.18,29.88,15,4,26,0.00
2013-9-6,69.9,55.6,42.8,49.2,44.5,39.3,95,70,38,30.28,30.11,9,1,14,0.00
2013-9-7,73.3,60.6,49.6,61.5,53.3,46.8,92,78,52,30.12,29.86,6,1,12,0.00
2013-9-8,71.3,63.5,48.2,62.0,53.2,41.7,93,72,38,30.13,29.79,17,4,27,0.00
2013-9-9,70.0,57.2,42.6,55.2,47.9,41.0,95,73,50,30.24,30.08,7,2,10,0.00
2013-9-10,78.8,69.4,62.1,73.1,65.5,55.0,95,88,77,30.09,29.97,10,2,15,0.36
2013-9-11,92.2,79.1,69.3,79.5,73.5,67.1,94,84,63,30.06,29.91,13,2,24,0.31
2013-9-12,80.4,70.9,67.6,73.7,68.6,66.4,96,93,79,29.92,29.66,8,1,16,2.62
2013-9-13,69.2,62.0,53.5,66.6,59.9,50.0,97,93,81,29.87,29.62,12,3,21,0.91
2013-9-14,64.4,55.9,49.6,51.8,49.0,45.6,89,78,62,30.11,29.87,14,5,20,0.00
2013-9-15,67.8,55.6,42.9,55.9,49.5,41.0,95,81,62,30.19,30.05,5,0,10,0.00
2013-9-16,64.3,55.0,43.6,55.9,50.8,40.9,94,86,72,30.32,30.03,14,2,21,0.11
2013-9-17,63.4,49.5,39.4,47.3,42.5,37.5,95,79,49,30.48,30.32,12,2,15,0.00
2013-9-18,70.4,53.3,40.0,53.7,47.1,38.7,96,82,51,30.35,30.15,6,0,9,0.01
2013-9-19,75.8,58.4,45.0,56.8,51.1,43.7,96,79,46,30.17,30.04,5,0,9,0.00
2013-9-20,78.0,62.6,47.9,62.0,54.7,46.8,96,78,52,30.09,29.93,6,1,12,0.00
2013-9-21,72.6,66.1,59.2,64.6,59.9,55.6,93,81,66,29.97,29.59,15,6,24,0.38
2013-9-22,63.7,57.8,49.9,61.2,50.5,43.6,96,78,54,29.92,29.61,18,6,35,0.22
2013-9-23,61.4,51.5,44.2,46.0,42.7,40.5,87,73,54,30.09,29.92,15,6,24,0.00
2013-9-24,67.6,52.2,38.4,48.4,43.7,36.6,94,74,48,30.08,29.88,15,4,21,0.00
2013-9-25,69.6,54.8,41.7,54.2,48.0,40.1,95,80,55,29.98,29.89,8,2,12,0.00
2013-9-26,65.5,56.0,47.3,52.1,48.7,45.4,94,78,58,30.15,29.98,15,4,20,0.00
2013-9-27,61.1,53.2,43.6,53.3,49.1,42.3,96,86,73,30.30,30.15,10,1,14,0.00
2013-9-28,73.3,55.9,46.7,57.1,51.0,45.3,96,86,53,30.37,30.24,9,1,12,0.00
2013-9-29,73.1,57.5,49.2,57.6,51.9,47.8,97,84,49,30.24,30.05,6,0,9,0.01
2013-9-30,72.7,57.7,47.4,56.7,51.3,46.0,96,81,50,30.10,29.96,8,1,12,0.00
2013-10-1,76.7,59.1,45.4,61.3,53.0,44.1,96,82,55,30.03,29.89,14,2,18,0.00
2013-10-2,76.9,63.7,51.7,63.8,57.4,50.3,96,81,57,29.99,29.90,8,2,26,0.00
2013-10-3,62.2,56.8,52.4,55.6,53.5,50.4,93,89,79,30.07,29.99,2,0,8,0.00
2013-10-4,62.0,58.8,56.2,59.3,56.3,53.8,95,92,87,30.08,30.03,7,1,12,0.57
2013-10-5,62.2,59.1,56.1,57.0,55.0,52.6,93,86,78,30.11,30.05,10,2,14,0.02
2013-10-6,62.9,57.6,52.6,58.9,54.4,50.8,96,89,83,30.11,30.02,12,2,16,0.18
2013-10-7,75.6,63.7,52.3,67.8,60.0,50.3,94,88,74,30.01,29.62,17,4,26,1.01
2013-10-8,64.9,53.8,44.8,49.8,45.3,42.0,92,75,49,30.37,29.95,12,3,16,0.00
2013-10-9,64.5,48.9,39.4,48.5,42.8,37.5,96,82,49,30.49,30.34,9,1,12,0.00
2013-10-10,58.8,50.4,39.8,51.6,45.9,37.9,95,85,67,30.35,30.17,7,1,10,0.01
2013-10-11,68.5,56.5,48.5,53.4,49.4,46.0,95,79,48,30.17,30.08,9,2,12,0.00
2013-10-12,73.3,55.5,41.7,55.8,48.5,40.1,96,79,53,30.34,30.15,8,2,15,0.00
2013-10-13,69.2,58.2,49.9,52.3,49.9,46.9,93,76,52,30.41,30.30,6,1,12,0.00
2013-10-14,65.7,57.1,47.0,55.8,51.1,44.5,93,81,66,30.35,30.23,7,1,12,0.00
2013-10-15,69.2,60.8,55.8,59.9,55.9,52.5,92,84,71,30.26,30.11,9,1,12,0.00
2013-10-16,63.5,58.5,52.7,56.2,51.3,43.6,85,77,68,30.11,29.85,9,2,15,0.00
2013-10-17,69.9,61.6,57.4,57.6,53.4,49.8,94,76,52,29.89,29.60,12,2,14,0.13
2013-10-18,64.7,56.1,43.6,60.9,47.6,38.8,94,75,39,29.94,29.56,16,4,29,0.06
2013-10-19,63.8,52.3,41.1,49.0,43.0,38.7,93,73,46,29.95,29.69,12,2,21,0.01
2013-10-20,59.6,50.6,41.4,50.0,40.3,36.5,86,69,44,30.03,29.68,15,3,20,0.00
2013-10-21,65.8,53.8,42.2,44.9,41.2,38.0,86,64,43,30.10,29.91,9,2,16,0.00
2013-10-22,55.7,50.5,37.3,48.8,42.3,33.8,87,74,57,29.90,29.76,17,4,26,0.00
2013-10-23,51.8,43.0,35.2,39.0,35.5,32.8,93,76,54,29.82,29.62,8,1,18,0.00
2013-10-24,50.9,42.9,32.3,36.9,33.0,29.3,94,70,45,29.94,29.73,14,4,24,0.01
2013-10-25,49.7,41.8,36.0,36.7,33.8,30.8,89,74,53,30.17,29.94,21,4,31,0.00
2013-10-26,50.9,42.2,33.5,35.9,33.5,30.8,92,73,47,30.16,29.85,13,3,18,0.00
2013-10-27,51.9,45.4,33.8,37.0,34.9,30.9,89,67,48,30.08,29.80,17,4,39,0.02
2013-10-28,56.9,42.7,32.1,39.6,32.4,25.4,93,69,41,30.37,30.07,18,3,29,0.00
2013-10-29,47.3,36.1,27.6,28.3,25.2,21.4,84,66,36,30.48,30.35,9,2,15,0.00
2013-10-30,51.7,40.4,33.8,41.2,34.5,27.1,91,80,66,30.35,30.20,6,0,8,0.01
2013-10-31,60.6,47.7,33.6,58.6,45.7,31.8,96,93,88,30.23,29.73,6,3,24,0.22
2013-11-1,69.2,62.8,50.9,62.1,54.2,42.5,93,75,46,29.73,29.37,22,8,33,0.04
2013-11-2,59.0,48.3,38.9,50.5,43.0,36.1,94,82,62,29.84,29.61,17,2,26,0.02
2013-11-3,41.9,37.0,26.7,36.1,26.1,19.0,81,65,49,30.49,29.84,20,7,30,0.00
2013-11-4,40.9,30.5,21.8,23.4,20.4,18.0,89,68,40,30.69,30.49,15,3,18,0.00
2013-11-5,52.0,41.4,26.0,39.1,31.9,22.4,90,70,56,30.68,30.45,14,3,16,0.00
2013-11-6,58.8,52.3,45.8,48.3,44.1,39.1,84,74,63,30.46,29.93,20,9,29,0.00
2013-11-7,56.9,49.5,40.7,52.2,43.7,35.3,93,80,68,29.94,29.76,17,7,35,0.24
2013-11-8,45.5,39.3,32.5,36.2,31.6,27.1,85,74,51,30.17,29.88,30,8,41,0.01
2013-11-9,44.4,36.8,25.8,33.2,28.5,22.5,89,73,57,30.24,29.93,13,2,18,0.00
2013-11-10,51.0,44.8,39.6,39.6,35.2,30.2,85,69,55,30.00,29.76,22,6,31,0.04
2013-11-11,49.0,44.1,38.0,35.2,31.5,28.4,76,61,51,30.16,29.91,14,4,31,0.00
2013-11-12,45.6,31.9,24.3,36.5,23.1,17.4,88,70,57,30.28,29.93,21,10,35,0.01
2013-11-13,36.8,28.8,20.3,20.9,17.1,14.0,78,62,40,30.38,30.17,23,6,26,0.00
2013-11-14,52.8,38.4,28.8,27.2,23.2,20.1,72,56,35,30.16,30.07,16,4,23,0.00
2013-11-15,55.8,43.3,34.9,27.8,22.6,18.2,61,45,28,30.20,30.10,12,3,14,0.00
2013-11-16,60.2,50.7,40.9,39.6,35.6,26.1,73,57,42,30.30,30.19,7,2,10,0.00
2013-11-17,61.3,52.9,45.7,56.8,49.3,39.3,94,88,73,30.24,29.68,29,7,31,0.01
2013-11-18,62.7,56.2,41.7,58.1,43.0,31.2,92,63,39,29.76,29.47,28,11,41,0.16
2013-11-19,41.5,36.7,25.7,31.3,23.9,19.2,79,60,50,30.39,29.76,31,12,38,0.00
2013-11-20,38.3,28.1,20.6,21.9,18.6,15.9,84,69,45,30.65,30.39,14,3,20,0.00
2013-11-21,45.3,33.1,17.7,32.1,24.3,15.3,90,71,48,30.65,30.37,13,2,16,0.00
2013-11-22,47.7,42.6,38.9,44.4,39.6,31.8,95,89,68,30.37,29.88,10,0,35,0.07
2013-11-23,47.1,35.3,24.1,40.9,26.1,15.0,86,70,43,30.04,29.85,22,11,41,0.00
2013-11-24,26.9,20.7,15.2,16.6,8.1,4.4,78,58,42,30.32,29.93,33,15,48,0.00
2013-11-25,32.4,24.3,10.8,17.6,12.3,4.9,81,60,52,30.44,30.22,16,5,23,0.00
2013-11-26,35.2,31.9,27.4,31.7,26.9,16.8,94,83,53,30.31,29.94,14,4,20,0.23
2013-11-27,38.8,35.6,32.5,37.8,33.5,27.3,96,92,81,29.93,29.41,26,8,36,1.02
2013-11-28,32.4,25.6,18.6,27.2,16.1,12.1,87,68,49,30.46,29.64,26,9,46,0.00
2013-11-29,33.3,24.5,18.4,19.9,16.2,11.8,89,72,45,30.77,30.46,14,3,29,0.00
2013-11-30,31.2,23.5,11.6,21.8,13.5,8.3,89,67,47,30.80,30.37,21,4,30,0.00
2013-12-1,40.2,33.9,27.7,32.0,28.1,22.0,89,79,69,30.37,30.02,8,1,16,0.00
2013-12-2,39.3,34.7,29.0,33.5,30.9,26.4,90,86,78,30.02,29.90,3,0,8,0.00
2013-12-3,42.8,33.5,27.0,36.3,29.5,24.4,94,86,69,30.01,29.92,12,1,20,0.00
2013-12-4,44.0,31.2,23.3,32.5,26.2,21.3,94,83,56,30.16,30.01,6,1,8,0.00
2013-12-5,54.3,45.5,28.7,52.1,43.0,26.1,94,91,86,30.15,29.88,21,8,27,0.02
2013-12-6,53.3,40.3,33.2,50.7,35.9,30.1,93,84,75,30.19,29.90,17,8,26,0.33
2013-12-7,35.5,32.3,29.6,30.8,26.6,21.6,93,80,65,30.49,30.15,20,7,30,0.02
2013-12-8,30.7,28.1,23.4,23.0,21.3,19.3,87,76,68,30.60,30.50,10,2,14,0.00
2013-12-9,55.4,30.3,26.7,32.9,27.8,23.3,93,90,84,30.38,0.00,9,0,12,0.00
2013-12-10,34.1,29.4,17.5,31.6,25.5,14.0,94,86,69,30.02,29.86,8,1,20,0.02
2013-12-11,31.3,25.7,17.3,22.8,17.1,10.8,88,70,55,30.22,30.02,7,2,22,0.00
2013-12-12,24.7,19.7,13.3,18.4,9.5,3.2,85,65,42,30.35,30.05,7,2,13,0.00
2013-12-13,30.7,22.3,13.9,22.7,12.8,4.6,84,67,56,30.42,29.99,10,3,25,0.00
2013-12-14,13.8,11.1,8.5,9.1,4.8,0.7,87,76,67,30.61,30.07,6,2,13,0.36
2013-12-15,30.7,22.8,12.4,25.6,19.4,9.5,92,87,79,30.06,29.57,10,1,20,0.85
2013-12-16,25.9,18.8,4.0,23.3,11.5,0.1,90,73,59,30.24,29.76,10,2,25,0.00
2013-12-17,12.9,5.4,-3.8,10.2,1.9,-8.0,89,85,82,30.25,30.02,2,0,6,0.07
2013-12-18,26.0,19.1,8.6,22.1,15.5,5.0,91,86,79,30.09,30.00,2,0,7,0.07
2013-12-19,38.6,30.6,24.7,27.7,24.7,21.6,89,79,63,30.10,29.97,7,2,15,0.01
2013-12-20,44.5,38.7,32.8,36.3,31.9,27.5,86,77,65,30.09,29.89,7,2,16,0.08
2013-12-21,49.1,45.0,40.5,45.4,38.7,33.4,95,79,65,29.92,29.82,8,2,16,0.23
2013-12-22,56.1,38.6,31.5,55.3,37.0,30.0,97,94,88,29.94,29.61,8,2,18,0.03
2013-12-23,45.9,40.2,34.2,42.5,37.3,28.1,95,89,72,30.19,29.93,14,2,30,0.20
2013-12-24,34.2,27.6,18.8,28.6,19.4,10.5,81,71,62,30.34,30.13,14,3,30,0.00
2013-12-25,22.0,16.3,10.3,12.7,7.0,2.4,76,67,54,30.57,30.35,12,3,25,0.00
2013-12-26,30.7,26.4,20.1,25.6,19.6,12.0,90,76,60,30.40,30.11,9,3,17,0.00
2013-12-27,33.8,27.7,19.8,25.8,21.8,16.0,90,79,64,30.30,30.22,5,0,12,0.00
2013-12-28,44.7,33.5,26.8,32.1,26.6,21.9,91,76,60,30.22,30.03,7,2,12,0.00
2013-12-29,41.5,34.4,26.7,35.4,30.6,24.4,95,86,67,30.03,29.58,7,1,13,0.77
2013-12-30,34.5,25.1,11.9,33.2,18.9,7.2,95,78,60,30.23,29.65,15,4,32,0.01
2013-12-31,23.6,17.0,10.4,19.2,11.3,6.3,87,78,59,30.23,30.03,9,1,26,0.00
2014-1-1,26.4,18.8,11.3,14.9,11.5,5.9,85,73,57,30.39,30.22,8,1,17,0.04
2014-1-2,18.2,3.9,-2.4,14.6,-0.1,-6.3,86,83,81,30.35,29.94,10,4,20,0.14